EmpreSS Of The Seas — C6CM8 — position and weather

sailwx.info

Track history (hours):
 
Tides and Currents Weather Stations Pressure Air Temp Water Temp Dewpoint Dewpoint Depression Visibility Wind Speed Wind Dir Waves Ship Positions

EmpreSS Of The Seas

Last reported at 2018-Jun-17 07:00 UTC. Time now 2018-Jun-18 02:13 UTC.
Position N 23°24' W 082°00'.

Length 211 m; draft 7.3 m.

Type: Passenger vessel. MMSI: 311000515.

Wind from 110 at 13 knots

Barometer 1018.4 mb
Air temperature 26.0 ° C
Visibility: greater than 10.8 NM
Dewpoint 24.6 ° C
Water temperature 26.0 ° C

Date/timePositionNaut miles runAvg speedWind from/ knotsBaromVisibWave heightAir tempDewpointWater temp
2018-Jun-17 07:00N 23°24' W 082°00'24210.5 110 / 131018.410.8 26.024.626.0
2018-Jun-16 08:00N 26°00' W 078°36'67 2.9 200 / 51018.010.8 25.023.625.0
2018-Jun-15 09:00N 25°30' W 077°30'12811.4 190 / 51018.810.8 25.023.625.0
2018-Jun-14 21:43N 25°52' W 079°50'315.3
2018-Jun-14 21:30N 25°51' W 079°54'714.6
2018-Jun-14 21:00N 25°48' W 080°01'611.6
2018-Jun-14 20:30N 25°45' W 080°07'4 7.1
2018-Jun-14 20:00N 25°47' W 080°10'0 0.5
2018-Jun-14 19:30N 25°47' W 080°11'0 0.0
2018-Jun-14 19:00N 25°47' W 080°11'0 0.0
2018-Jun-14 18:27N 25°47' W 080°11'0 0.0
2018-Jun-14 17:57N 25°47' W 080°11'0 0.0
2018-Jun-14 17:30N 25°47' W 080°11'0 0.0
2018-Jun-14 17:00N 25°47' W 080°11'0 0.0
2018-Jun-14 16:30N 25°47' W 080°11'0 0.0
2018-Jun-14 15:57N 25°47' W 080°11'0 0.0
2018-Jun-14 15:24N 25°47' W 080°11'0 0.0
2018-Jun-14 14:57N 25°47' W 080°11'0 0.0
2018-Jun-14 14:30N 25°47' W 080°11'0 0.0
2018-Jun-14 14:00N 25°47' W 080°11'0 0.0
2018-Jun-14 13:30N 25°47' W 080°11'0 0.0
2018-Jun-14 13:00N 25°47' W 080°11'0 0.0
2018-Jun-14 12:30N 25°47' W 080°11'0 0.0
2018-Jun-14 11:57N 25°47' W 080°11'0 0.0
2018-Jun-14 11:30N 25°47' W 080°11'0 0.0
2018-Jun-14 11:00N 25°47' W 080°11'0 0.1
2018-Jun-14 10:30N 25°47' W 080°11'2 3.6
2018-Jun-14 10:00N 25°46' W 080°09'510.7
2018-Jun-14 09:30N 25°46' W 080°03'4 8.2
2018-Jun-14 09:00N 25°46' W 079°58'3 6.8
2018-Jun-14 08:30N 25°45' W 079°55'4 7.0
2018-Jun-14 08:00N 25°42' W 079°52'4 8.6
2018-Jun-14 07:29N 25°39' W 079°50'4 8.8
2018-Jun-14 07:00N 25°35' W 079°47'7433.5
2018-Jun-14 07:00N 25°30' W 079°42'3 5.3 140 / 81018.9 5.4 26.024.626.0
2018-Jun-14 06:30N 25°31' W 079°45'134 5.9
2018-Jun-13 08:00N 23°48' W 081°18'   170 / 51016.9 5.4 25.023.627.0
2018-Jun-11 02:00N 24°06' W 081°54'82 3.7 040 / 201019.1 5.4 27.024.325.0
2018-Jun-10 04:00N 24°36' W 080°30'5910.6 150 / 101019.5 5.4 27.024.325.0
2018-Jun-09 22:26N 25°29' W 080°01'512.1
2018-Jun-09 22:00N 25°34' W 080°01'612.3
2018-Jun-09 21:30N 25°40' W 080°02'611.5
2018-Jun-09 21:00N 25°45' W 080°05'4 8.1
2018-Jun-09 20:30N 25°46' W 080°09'2 2.9
2018-Jun-09 19:59N 25°46' W 080°11'0 0.0
2018-Jun-09 19:26N 25°46' W 080°11'0 0.0
2018-Jun-09 18:59N 25°46' W 080°11'0 0.0
2018-Jun-09 18:29N 25°46' W 080°11'0 0.0
2018-Jun-09 17:50N 25°46' W 080°11'0 0.0
2018-Jun-09 17:23N 25°46' W 080°11'0 0.0
2018-Jun-09 16:56N 25°46' W 080°11'0 0.0
2018-Jun-09 16:26N 25°46' W 080°11'0 0.0
2018-Jun-09 15:59N 25°46' W 080°11'0 0.0
2018-Jun-09 14:59N 25°46' W 080°11'0 0.0
2018-Jun-09 14:29N 25°46' W 080°11'0 0.0
2018-Jun-09 13:56N 25°46' W 080°11'0 0.0
2018-Jun-09 13:29N 25°46' W 080°11'0 0.0
2018-Jun-09 12:59N 25°46' W 080°11'0 0.0
2018-Jun-09 12:29N 25°46' W 080°11'0 0.0
2018-Jun-09 11:59N 25°46' W 080°11'0 0.0
2018-Jun-09 11:29N 25°46' W 080°11'0 0.0
2018-Jun-09 10:59N 25°46' W 080°11'0 0.0
2018-Jun-09 10:30N 25°46' W 080°11'1 1.5
2018-Jun-09 10:01N 25°46' W 080°10'2 4.1
2018-Jun-09 09:30N 25°46' W 080°08'611.0
2018-Jun-09 09:00N 25°47' W 080°02'2 4.3
2018-Jun-09 08:30N 25°48' W 079°60'3 6.2
2018-Jun-09 08:00N 25°49' W 079°56'3 7.0
2018-Jun-09 07:30N 25°51' W 079°53'4 7.2
2018-Jun-09 07:00N 25°52' W 079°49'4 7.1
2018-Jun-09 06:30N 25°54' W 079°46'3 6.7
2018-Jun-09 06:00N 25°55' W 079°43'3 6.8
2018-Jun-09 05:30N 25°57' W 079°39'3 6.9
2018-Jun-09 05:00N 25°59' W 079°36'5410.7
2018-Jun-09 00:00N 26°00' W 078°36'17 0.9 130 / 171019.9 5.4 26.024.625.0
2018-Jun-08 04:00N 26°06' W 078°54'52 9.8 160 / 161020.3 5.4 25.023.624.0
2018-Jun-07 22:43N 25°27' W 079°31'312.6
2018-Jun-07 22:28N 25°24' W 079°32'108 8.7
2018-Jun-07 10:00N 24°00' W 080°48'   240 / 91015.910.8 24.921.625.0
Track history (hours):
 
Tides and Currents Weather Stations Pressure Air Temp Water Temp Dewpoint Dewpoint Depression Visibility Wind Speed Wind Dir Waves Ship Positions

EmpreSS Of The Seas

Last reported at 2018-Jun-17 07:00 UTC. Time now 2018-Jun-18 02:13 UTC.
Position N 23°24' W 082°00'.

Length 211 m; draft 7.3 m.

Type: Passenger vessel. MMSI: 311000515.

Wind from 110 at 13 knots

Barometer 1018.4 mb
Air temperature 26.0 ° C
Visibility: greater than 10.8 NM
Dewpoint 24.6 ° C
Water temperature 26.0 ° C

Date/timePositionNaut miles runAvg speedWind from/ knotsBaromVisibWave heightAir tempDewpointWater temp
2018-Jun-17 07:00N 23°24' W 082°00'24210.5 110 / 131018.410.8 26.024.626.0
2018-Jun-16 08:00N 26°00' W 078°36'67 2.9 200 / 51018.010.8 25.023.625.0
2018-Jun-15 09:00N 25°30' W 077°30'12811.4 190 / 51018.810.8 25.023.625.0
2018-Jun-14 21:43N 25°52' W 079°50'315.3
2018-Jun-14 21:30N 25°51' W 079°54'714.6
2018-Jun-14 21:00N 25°48' W 080°01'611.6
2018-Jun-14 20:30N 25°45' W 080°07'4 7.1
2018-Jun-14 20:00N 25°47' W 080°10'0 0.5
2018-Jun-14 19:30N 25°47' W 080°11'0 0.0
2018-Jun-14 19:00N 25°47' W 080°11'0 0.0
2018-Jun-14 18:27N 25°47' W 080°11'0 0.0
2018-Jun-14 17:57N 25°47' W 080°11'0 0.0
2018-Jun-14 17:30N 25°47' W 080°11'0 0.0
2018-Jun-14 17:00N 25°47' W 080°11'0 0.0
2018-Jun-14 16:30N 25°47' W 080°11'0 0.0
2018-Jun-14 15:57N 25°47' W 080°11'0 0.0
2018-Jun-14 15:24N 25°47' W 080°11'0 0.0
2018-Jun-14 14:57N 25°47' W 080°11'0 0.0
2018-Jun-14 14:30N 25°47' W 080°11'0 0.0
2018-Jun-14 14:00N 25°47' W 080°11'0 0.0
2018-Jun-14 13:30N 25°47' W 080°11'0 0.0
2018-Jun-14 13:00N 25°47' W 080°11'0 0.0
2018-Jun-14 12:30N 25°47' W 080°11'0 0.0
2018-Jun-14 11:57N 25°47' W 080°11'0 0.0
2018-Jun-14 11:30N 25°47' W 080°11'0 0.0
2018-Jun-14 11:00N 25°47' W 080°11'0 0.1
2018-Jun-14 10:30N 25°47' W 080°11'2 3.6
2018-Jun-14 10:00N 25°46' W 080°09'510.7
2018-Jun-14 09:30N 25°46' W 080°03'4 8.2
2018-Jun-14 09:00N 25°46' W 079°58'3 6.8
2018-Jun-14 08:30N 25°45' W 079°55'4 7.0
2018-Jun-14 08:00N 25°42' W 079°52'4 8.6
2018-Jun-14 07:29N 25°39' W 079°50'4 8.8
2018-Jun-14 07:00N 25°35' W 079°47'7433.5
2018-Jun-14 07:00N 25°30' W 079°42'3 5.3 140 / 81018.9 5.4 26.024.626.0
2018-Jun-14 06:30N 25°31' W 079°45'134 5.9
2018-Jun-13 08:00N 23°48' W 081°18'   170 / 51016.9 5.4 25.023.627.0
2018-Jun-11 02:00N 24°06' W 081°54'82 3.7 040 / 201019.1 5.4 27.024.325.0
2018-Jun-10 04:00N 24°36' W 080°30'5910.6 150 / 101019.5 5.4 27.024.325.0
2018-Jun-09 22:26N 25°29' W 080°01'512.1
2018-Jun-09 22:00N 25°34' W 080°01'612.3
2018-Jun-09 21:30N 25°40' W 080°02'611.5
2018-Jun-09 21:00N 25°45' W 080°05'4 8.1
2018-Jun-09 20:30N 25°46' W 080°09'2 2.9
2018-Jun-09 19:59N 25°46' W 080°11'0 0.0
2018-Jun-09 19:26N 25°46' W 080°11'0 0.0
2018-Jun-09 18:59N 25°46' W 080°11'0 0.0
2018-Jun-09 18:29N 25°46' W 080°11'0 0.0
2018-Jun-09 17:50N 25°46' W 080°11'0 0.0
2018-Jun-09 17:23N 25°46' W 080°11'0 0.0
2018-Jun-09 16:56N 25°46' W 080°11'0 0.0
2018-Jun-09 16:26N 25°46' W 080°11'0 0.0
2018-Jun-09 15:59N 25°46' W 080°11'0 0.0
2018-Jun-09 14:59N 25°46' W 080°11'0 0.0
2018-Jun-09 14:29N 25°46' W 080°11'0 0.0
2018-Jun-09 13:56N 25°46' W 080°11'0 0.0
2018-Jun-09 13:29N 25°46' W 080°11'0 0.0
2018-Jun-09 12:59N 25°46' W 080°11'0 0.0
2018-Jun-09 12:29N 25°46' W 080°11'0 0.0
2018-Jun-09 11:59N 25°46' W 080°11'0 0.0
2018-Jun-09 11:29N 25°46' W 080°11'0 0.0
2018-Jun-09 10:59N 25°46' W 080°11'0 0.0
2018-Jun-09 10:30N 25°46' W 080°11'1 1.5
2018-Jun-09 10:01N 25°46' W 080°10'2 4.1
2018-Jun-09 09:30N 25°46' W 080°08'611.0
2018-Jun-09 09:00N 25°47' W 080°02'2 4.3
2018-Jun-09 08:30N 25°48' W 079°60'3 6.2
2018-Jun-09 08:00N 25°49' W 079°56'3 7.0
2018-Jun-09 07:30N 25°51' W 079°53'4 7.2
2018-Jun-09 07:00N 25°52' W 079°49'4 7.1
2018-Jun-09 06:30N 25°54' W 079°46'3 6.7
2018-Jun-09 06:00N 25°55' W 079°43'3 6.8
2018-Jun-09 05:30N 25°57' W 079°39'3 6.9
2018-Jun-09 05:00N 25°59' W 079°36'5410.7
2018-Jun-09 00:00N 26°00' W 078°36'17 0.9 130 / 171019.9 5.4 26.024.625.0
2018-Jun-08 04:00N 26°06' W 078°54'52 9.8 160 / 161020.3 5.4 25.023.624.0
2018-Jun-07 22:43N 25°27' W 079°31'312.6
2018-Jun-07 22:28N 25°24' W 079°32'108 8.7
2018-Jun-07 10:00N 24°00' W 080°48'   240 / 91015.910.8 24.921.625.0

Dump ship's entire track history